Bookmark and Share
Track history (hours):
 

Frontier Oasis

Last reported at 2014-Apr-04 19:10 UTC. Time now 2014-Apr-21 10:14 UTC.
Position N 33°02' E 124°00'.
Warning: this ship's position is 16 days out of date.

Length 292 m; draft 8.7 m.

Type: Ship. MMSI: 371910000.

NotesDate/timePositionNaut miles runAvg speedWind from/ knotsBaromVisibWave heightAir tempDewpointWater temp
2014-Apr-04 19:10N 33°02' E 124°00'28612.6
2014-Apr-03 20:27N 37°42' E 122°52'1415.4
2014-Apr-03 19:33N 37°48' E 122°37'1515.2
2014-Apr-03 18:32N 37°56' E 122°20'1414.6
2014-Apr-03 17:33N 38°03' E 122°04'3114.1
2014-Apr-03 15:21N 38°18' E 121°30'  
2014-Mar-31 23:06N 38°53' E 118°34'5 0.2
2014-Mar-30 19:11N 38°51' E 118°40'0 0.0
2014-Mar-30 18:29N 38°51' E 118°40'0 0.0
2014-Mar-30 17:29N 38°51' E 118°40'0 0.0
2014-Mar-30 16:29N 38°51' E 118°40'0 0.0
2014-Mar-30 15:29N 38°51' E 118°40'134 4.6
2014-Mar-29 10:33N 38°22' E 121°28'38510.7
2014-Mar-27 22:31N 32°18' E 124°00'1211.9
2014-Mar-27 21:30N 32°06' E 124°00'1111.5
2014-Mar-27 20:30N 31°55' E 123°60'1011.0
2014-Mar-27 19:33N 31°44' E 124°00'1110.7
2014-Mar-27 18:33N 31°33' E 124°01'1610.9
2014-Mar-27 17:06N 31°17' E 124°00'611.4
2014-Mar-27 16:32N 31°11' E 124°00'1111.5
2014-Mar-27 15:33N 30°60' E 124°01'1111.4
2014-Mar-27 14:34N 30°49' E 124°00'1110.7
2014-Mar-27 13:30N 30°38' E 124°06'1612.2
2014-Mar-27 12:09N 30°23' E 124°00'913.0
2014-Mar-27 11:28N 30°14' E 124°00'1212.9
2014-Mar-27 10:33N 30°02' E 124°01'1514.1
2014-Mar-27 09:29N 29°47' E 123°58'1414.1
2014-Mar-27 08:30N 29°34' E 123°55'  

Dump ship's entire track history

sailing weather and tide predictions

Frontier Oasis — 3FLC2 — position and weather